在线播放
- 2025-05-16viinas.com.To.Rome.With.Love.2012.1080p.BluRay.x265-RARBG[1.74G]1.74GB
- 2025-03-29To-Rome-with-Love-2012-BluRay-1080p-YTS-YIFY
- 2024-12-07a在l马.2012.BD1080p.中英双字.mp4[3.09G]3.09GB
- 2023-10-09爱在罗马[简繁英字幕].To.Rome.With.Love.2012.BluRay.1080p.TrueHD.7.1.x265.10bit-ALT[10.44G]10.44GB
- 2023-03-10[domp4]爱z罗m.2012.BD1080p.中文字幕.mp4[3.35G]3.35GB
- 2024-01-06爱在罗马[diy简繁中字]2012.diy.bluray.1080p.avc.dtshdma.5.1-kbu
- 2024-01-06to.rome.with.love.2012.1080p.bluray.x264.dts-hdchina
- 2024-01-06to.rome.with.love.2012.1080p.bluray.x264-psychd
- 2024-01-06to.rome.with.love.2012.1080p.bluray.dts.x264-publichd
- 2023-05-12viinas.com.To.Rome.with.Love.2012.1080p.BluRay.H264.AAC-RARBG[2.13G]2.13GB
- 2023-05-12To.Rome.With.Love.2012.1080p.BluRay.x264.anoXmous 1.39 GB
- 2023-05-11A Roma con amor (To Rome with Love) [1080p] [Español+English subt] [H.264] [AAC 5.1].mkv1.91GB
- 2023-05-11To Rome with Love (2012) [MicroHD 1080p][DUAL]7.12 GB
- 2023-05-11To-Rome-With-Love-2012-1080p-ENG-ITA-x264-bluray
- 2023-05-11To.Rome.with.Love.2012.1080p.BluRay.x264-PSYCHD[8.09G]8.09GB
- 2023-05-11To.Rome.with.Love.2012.REAL.PROPER.1080p.BluRay.x264-PSYCHD8.09 GB
- 2023-05-1112.10.14.To.Rome.With.Love.2012.BD.REMUX.h264.1080p.DHD.Mysilu20.0 GB
- 2023-05-10To-Rome-with-Love-2012-1080p-BluRay-AC3-DTS-HQ-NL-Subs
- 2023-05-10To.Rome.with.Love.2012.BluRay.1080p.DTS.x264-CHDMKV10.0 GB
- 2023-05-10To-Rome-With-Love-2012-1080p-BluRay-DTS-x264-PublicHD
- 2023-05-10To.Rome.With.Love.2012.1080.BDRip.x264.AAC-26K3.10GB
- 2023-05-10To-Rome-with-Love-2012-1080p-BluRay-x264-AN0NYM0US-PublicHD
- 2023-05-10To.Rome.with.Love.2012.1080p.BluRay.x264-PSYCHD[7.94G]7.94GB
- 2023-05-10viinas.com.To.Rome.with.Love.2012.1080p.BluRay.H264.AAC-RARBG[2.13G]2.13GB
- 2025-05-16viinas.com.To Rome With Love (2012) 720p BluRay x264 -[MoviesFD][888.95M]
- 2024-01-06to.rome.with.love.2012.bluray.720p.dts.x264-chd
- 2024-01-06to.rome.with.love.2012.720p.bluray.x264.dts-hdchina [publichd]
- 2024-01-06to.rome.with.love.2012.720p.bluray.x264-barc0de
- 2024-01-06to.rome.with.love.2012.720p.bluray.x264-an0nym0us [publichd]
- 2023-09-02【720p高清中文字幕】爱在罗马 to rome with love迅雷下载.2012.1.3gb.torrent1.30 GB
- 2023-09-02【720p高清中文字幕】爱在罗马 to rome with love迅雷下载.2012.6.88gb.torrent6.88GB
- 2023-09-02【720p高清中文字幕】爱在罗马 to rome with love迅雷下载.2012.1.19gb.torrent1.19 GB
- 2023-05-12viinas.com.To.Rome.with.Love.2012.720p.BluRay.H264.AAC-RARBG[1.35G]1.35GB
- 2023-05-12【爱在罗马】【Remux】【36.16 GB】【TO_ROME_WITH_LOVE_2012_BD-REMUX_HDCLUB】6.16GB
- 2023-05-122012爱在罗马BD720P中字.mp41.43GB
- 2023-05-12To Rome With Love 2012 BRRip 350MB x264 AAC - VYTO [P2PDL] 365.95MB
- 2023-05-12To Rome With Love (2012) 720p HARDCODED English subs Midget 1.61GB
- 2023-05-12Ice Age 4-Continental Drift [2012]-480p-BRrip-x264-StyLishSaLH ( 278.27MB
- 2023-05-12To-Rome-With-Love-2012-720p-BRRip-H264-ETRG
- 2023-05-11To Rome with Love 2012 x264 DTS-WAF2.06GB
- 2023-05-11www.byte.to...To.Rome.with.Love.2012.German.720p.BluRay.x264-ENCOUNTERS3.8 GB
- 2023-05-11To.Rome.With.Love.2012.FRENCH.720p.BluRay.x264-ROUGH5.5 GB
- 2023-05-11To.Rome.With.Love.2012.FRENCH.720p.BluRay.x264-ROUGH5.5 GB
- 2023-05-11To-Rome-with-Love-2012-720p-Bluray-X264-BARC0DE
- 2023-05-11To.Rome.with.Love.2012.720p.BluRay.DTS.Rus.Eng-Ita.HDCLUB.mkv9.8 GB
- 2023-05-11To.Rome.With.Love.2012.720p.BluRay.x264.DTS-HDChina6.9 GB
- 2023-05-11To.Rome.With.Love.2012.720p.BluRay.x264.DTS-HDChina6.9 GB
- 2023-05-112012.10.15.To.Rome.with.Love.2012.Blu-ray.720p.x264.DTS.MySilu5.4 GB
- 2023-05-11viinas.com.To.Rome.with.Love.2012.BluRay.720p.DTS.x264-CHD[5.1G]5.1GB
- 2023-05-10Love 2012 x264 DTS WAF2.06 GB
- 2023-05-10To-Rome-With-Love-2012-720p-BluRay-DTS-x264-PublicHD
- 2023-05-10爱在罗马.MP4.720x480.中文字幕MP4353 MB
- 2023-05-10To.Rome.With.Love.2012.BluRay.720p.H264MP4913 MB
- 2023-05-10To.Rome.With.Love.2012.iTALiAN.AC3.5.1.BDRip.XviD-HQ.DVDRip to rome with love Nero Fiddl1.27 GB
- 2023-05-10To Rome With Love [2012]-480p-BRrip-x264-StyLishSaLH (StyLish Re380.7MB
- 2023-05-10To-Rome-with-Love-2012-720P-HQ-AC3-DD5-1-Ext-Ned-Eng-Subs-TBS-B-Sam
- 2023-05-10To Rome With Love 2012 720p BRRip Srkfan (SilverTorrent)637.38MB
- 2023-05-10To-Rome-with-Love-2012-720p
- 2023-05-10爱在罗马.To.Rome.With.Love.2012.BD-RMVB-人人影视原创翻译中文字幕.rmvbRMVB501 MB
- 2023-05-10【121211】爱在罗马[2012年美国爱情片][BDRIP-MP4中文字幕]MP4939 MB
- 2023-05-10爱在罗马720p[江海互动论坛www.70king.com].rmvbRMVB1.25 GB
- 2023-05-10To Rome With Love 720-BRRIP-XVID-AC3-PULSARAVI3.03 GB
- 2023-05-10To Rome With Love [2012]-720p-BRrip-x264-StyLishSaLH (StyLish Re713.09MB
- 2023-05-10【爱在罗马(情迷罗马)】【蓝光720P版BD-RMVB.中字】【2012最新美国R级喜剧大片】RMVB1.16 GB
- 2023-05-10爱在罗马.720p.BD中文字幕RMVB1.18 GB
- 2023-05-10To-Rome-With-Love-2012-720p-BRRip-x264-AC3-JYK
- 2023-05-10To.Rome.with.Love.2012.PROPER.BDRip.XviD.SBTAVI1.36 GB
- 2023-05-10爱在罗马.To.Rome.With.Love.2012.BD-MP4-人人影视原创翻译中文字幕.mp4MP4640 MB
- 2023-05-10to.rome.with.love.2012.720p.bluray.dts.x264-publichd.srt228.27KBGB
- 2023-05-10To.Rome.With.Love.2012.爱在罗马.中文字幕.HR-HDTV.AC3.1024X552.x264-人人影视制作.mkvMKV1.70 GB
- 2023-05-10To-Rome-With-Love-2012-720p-BluRay-x264-DTS-HDChina-PublicHD
- 2023-05-10To.Rome.With.Love.2012.720p.BluRay.x264.DTS-HDC6.88GB
- 2023-05-10To.Rome.with.Love.2012.720p.BluRay.DD5.1.x264-EbP8.02GB
- 2023-05-10To Rome With Love 720-BRRIP-XVID-AC3-PULSAR3.03GB
- 2023-05-10To-Rome-with-Love-2012-720p-BluRay-x264-AN0NYM0US-PublicHD
- 2023-05-10To-Rome-with-Love-2012-720p-BRRiP-XViD-AC3-LEGi0N
- 2023-05-10To-Rome-With-Love-2012-BDRip-720p-x264-DXVA-AAC-MZON3
- 2023-05-10To.Rome.with.Love.2012.PROPER.BDRip.XviD-AN0NYM0US1.38GB
- 2023-05-10To.Rome.with.Love.2012.PROPER.SUBFiX.BDRip.XviD-AN0NYM0US0.01GB
- 2023-05-10To.Rome.with.Love.2012.BDRip.XviD-MeRCuRY0.68GB
- 2023-05-10viinas.com.To.Rome.with.Love.2012.720p.BluRay.H264.AAC-RARBG[1.35G]1.35GB
- 2023-03-28爱在罗马[中文字幕].To.Rome.with.Love.2012.1080p.BluRay.DTS.x265-10bit-GameHD[10.12G]10.12GB
- 2023-05-11[23]爱在罗马[DIY简繁中字]2012.DiY.BluRay.1080p.AVC.DTSHDMA.5.1-KBu[22.79G]22.79GB
- 2023-05-11To.Rome.With.Love.2012.iTALiAN.DTS.1080p.BluRay.x264-BLUWORLD12.93 GB
- 2023-05-11To.Rome.With.Love.2012.1080p.BluRay.x264.DTS-HDChina13.3 GB
- 2023-05-11To.Rome.With.Love.2012.BluRay.1080p.TrueHD.7.1.x264-beAst12.8 GB
- 2023-05-11To.Rome.with.Love.2012.1080p.BluRay.x264.DTS-WiKi14.1 GB
- 2023-05-10To.Rome.With.Love.2012.1080p.BluRay.x264.DTS-HDChina[13.29G]13.29GB
- 2023-05-10To Rome with Love 2012 1080p Bluray DTS x264-TayTO15.72 GB
- 2025-03-29To-Rome-with-Love-Woody-Allen-2012-XviD-Italian-English-Ac3-5-1-Sub-Ita-Eng-Forced-Eng-M
- 2025-03-29To-Rome-With-Love-2012-iTALiAN-DVDRip-XviD-TRL-MT
- 2025-03-29To-Rome-With-Love-2012-New-Source-CAM-Rip-SEEDBOX-Pimp4003
- 2024-01-06爱在罗马.2012.简繁中字£cmct墨小鱼
- 2023-05-12To.Rome.with.Love.2012.BRRip.XviD.MP3-XVID1.37GB
- 2023-05-12To Rome With Love 2012 DVDRip XviD-PTpOWeR 688.91MB
- 2023-05-12To Rome With Love 2012 DVDRip XviD AC3 AbSurdiTy 1.37GB
- 2023-05-12To-Rome-With-Love-2012-DVDRip-XviD-AbSurdiTy
- 2023-05-12To Rome with Love[2012]BRRip XviD-ETRG 708.9MB
- 2023-05-11viinas.com.爱在罗马.2012.简繁中字£CMCT墨小鱼[3.1G]3.1GB
- 2023-05-11To-Rome-with-Love-2012-PAL-DVDR-DD5-1-NL-Subs
- 2023-05-11To-Rome-with-Love-2012-DD5-1-nl-subs-now-Bios-RETAIL-B-Sam
- 2023-05-11To-Rome-with-Love-2012-PAL-DD5-1-DTS-Fr-NL-Subs-DVDR-NLU002
- 2023-05-11To-Rome-With-Love-2012-DVDR-NTSC-Latino
- 2023-05-10viinas.com.[2012.11.02]爱在罗马[2012年美国喜剧爱情(Bluray)](帝国出品)[2.08G]2.08GB
- 2023-05-10To Rome With Love 2012 DVDRip DownSpaces672.98MB
- 2023-05-10To Rome With Love 2012 DVDRip XviD-PTpOWeR689.04MB
- 2023-05-10To.Rome.With.Love.2012.TRUEFRENCH.DVDRip.XviD-UTTAVI703 MB
- 2023-05-10To Rome With Love 2012 BRRIP-XVID-AC3-PULSAR1.53GB
- 2023-05-10To Rome With Love 2012 DVDRIP [SUBBED] {1337x}-Hiest789.17MB
- 2023-05-10To Rome with Love (2012)BRRip NL subs[Divx]NLtoppers688.69 MB
- 2023-05-10To-Rome-with-Love-2012-PAL-DVD5-NL-subs-NLtoppers
- 2023-05-10To-Rome-With-Love-2012-BRRip-xvid-NL-Subs-DMT
- 2023-05-10爱在罗马MKV6.88 GB
- 2023-05-10To.Rome.With.Love.2012.SWESUB.DVDRip.XviD.AC3-little_devilAVI1.37 GB
- 2023-05-10爱在罗马⊙星星草⊙yleco.com⊙夜来香社区RMVB1022 MB
- 2023-05-10To.Rome.With.Love.2012.CAM.READNFO.XViD-26k1.28GB
- 2023-05-10To.Rome.With.Love.2012.CAM.NEW.SOURCE.READNFO.XViD-26k1.17 GB
- 2023-05-10To.Rome.With.Love.2012.DVDRip.XviD-PTpOWeR688.91 MB
- 2023-05-10To Rome With Love 2012 DVDRip XviD AbSurdiTy1.37 GB
- 2023-05-10To Rome With Love 2012.BRRip.AC3.HPV1.79GB
- 2023-05-10To Rome With Love 2012 BRRIP-XVID-AC3-PULSAR1.53 GB
- 2023-05-10To Rome With Love 2012 BRRip XviD-playXD0.69GB
- 2023-05-10To.Rome.with.Love.2012.BRRip.XviD.MP3-RARBG1.37GB
- 2023-10-11To.Rome.With.Love.爱在罗马.2012.1080p.BluRay.DTS.x264-PublicHD.ass双语字幕
- 2023-05-21爱在罗马 To Rome with Love (2012)简体中文字幕,繁體中文字幕,Engl
- 2023-05-21To.Rome.With.Love.2012.720p.BluRay.x264.DTS-HDChina[PROPER]简体中文字幕
- 2023-05-12爱在罗马 To Rome with Love (2012)简体中文字幕,繁體中文字幕,Engl
- 2023-05-12To.Rome.With.Love.2012.720p.BluRay.x264.DTS-HDChina[PROPER]简体中文字幕
《爱在罗马》剧情介绍
关键词:伍迪·艾伦 情迷罗马(港) 爱上罗马(台) 尼禄弹琴 波普十日谈 The Bop Decameron Nero Fiddled 喜剧 爱情
热门推荐
-
NO1Dhishkyaoon7.6 81
Dhishkyaoon 7.6
喜剧
艾哈迈德·德什穆克,马赫什·加格,斯瓦蒂·加特卡尔
-
NO2美丽人生7.6 82
美丽人生 7.6
喜剧,音乐
柳承龙,廉晶雅,邕圣祐,朴世婉
一部音乐电影,讲述了他的妻子“吴世妍”的故事,后者被迫与妻子一起走上街头,妻子要求提供奇怪的生日礼物以在学校里找到自己的
-
NO3痞子超神7.6 83
痞子超神 7.6
喜剧,爱情
周展翅,陈嘉男,阚犇犇
影片以电竞为题材、用周星驰式的喜剧方式,讲述了30多岁的“痞子”大叔阿喜为了追求游戏女主播可儿,从零开始逐渐成长为电竞高
-
NO42023年辽宁卫视春节联欢晚会7.6 84
2023年辽宁卫视春节联欢晚会 7.6
喜剧,音乐,歌舞,戏曲
《2023年辽宁卫视春节联欢晚会》是由辽宁卫视制作播出的春节晚会。
-
NO5天堂门票7.6 85
天堂门票 7.6
喜剧,爱情
乔治·克鲁尼,朱莉娅·罗伯茨,肖恩·林奇,艾莉尔·卡弗-奥尼尔,唐玲雪,比莉·洛德,凯特琳·德弗,马克西姆·布蒂尔,吉娜维夫·莱蒙,罗米·普利耶,卢卡斯·布哈沃,辛提亚·达玛扬提,罗温··查普曼,凡妮莎·埃弗里特,易卜拉欣·伊西克塔斯,穆兰·凯恩,塞纳·梅布拉图,阿曼达·奥登普西,艾萨克·普瑞斯特
乔治·克鲁尼、朱莉娅·罗伯茨大银幕再度合体,饰演一对早已离婚的夫妻被迫携手合作,试图阻止他们被爱冲昏了头的女儿犯下他们曾
-
NO6阿巳与小铃铛7.6 86
阿巳与小铃铛 7.6
喜剧,爱情,动画,短片
系列动画短片《阿巳与小铃铛》,展示了阿巳与小铃铛这对小情侣,令人捧腹的生活小轶事。
-
NO7龙门镇7.6 87
龙门镇 7.6
喜剧,动作
一龙,房岩,祁艳,程野,陈嘉男
清末民初乱世中,土匪雷虎欲洗劫龙门镇。龙威镖局总镖头龙一条带领全镇乡民反抗。龙一条先邀请各路高手除掉雷虎,均未得手。龙一
-
NO8八戒7.6 88
八戒 7.6
喜剧,动画,冒险
许光汉,刘冠廷,庾澄庆,邵雨薇,庹宗华,钟欣凌,魏如萱,许展荣,许展瑞
未来世界,科技与数据主宰一切,当旧城区变得又老又挤,以最新科技打造的新世界,成为人人向往的移居地,然而唯有贡献值最高的菁
-
NO9真爱别有用心7.6 89
真爱别有用心 7.6
喜剧,爱情
卡格里·奇塔纳克,埃金·科奇,娜兹·恰拉·厄尔马克,Yildiz Kültür,艾恰·艾欣·图兰,艾恰·艾欣·图兰 Ayça Aysin Turan
一对爱管闲事的老太太为各自长大成人的孙子孙女设计了一出浪漫邂逅的戏码,青梅竹马的暗恋与曾经的拌嘴吵闹就此复燃。
-
NO10小鸟球7.6 810
小鸟球 7.6
喜剧
Sydney Penny,Ryan O'Flanagan,Devin McGee
Twin Pines, a failing country club where maintaining a buzz
猜你喜欢
-
NO1禁区7.6 81
禁区 7.6
喜剧,歌舞,奇幻
Hervé Villechaize,Susan Tyrrell,Gisele Lindley,Jan Stuart Schwartz,Marie-Pascale Elfman,Virginia Rose
The bizarre and musical tale of a girl who travels to anothe
-
NO2阿巳与小铃铛7.6 82
阿巳与小铃铛 7.6
喜剧,爱情,动画,短片
系列动画短片《阿巳与小铃铛》,展示了阿巳与小铃铛这对小情侣,令人捧腹的生活小轶事。
-
NO3比得兔7.6 83
比得兔 7.6
喜剧,动画,冒险
詹姆斯·柯登,多姆纳尔·格里森,罗丝·伯恩,伊丽莎白·德比茨基,玛格特·罗比,黛西·雷德利,科林·穆迪,山姆·尼尔,希雅,伊文·莱斯利,费萨尔·巴齐,克里斯蒂安·加扎尔,玛丽安娜·琼-巴普蒂斯特,加雷斯·戴维斯,山姆·哈夫特,萨莎·霍勒,娜塔丽·朱,特伦尼娅·爱德华兹,费利克斯·威廉森,许明珠,布莱恩·布朗,蕾切尔·沃德,大卫·文翰,威尔·赖歇尔特
远离伦敦的英国乡村,比得兔(詹姆斯·柯登 James Corden 配音)和家人以及朋友们过着快乐的生活,当然除了那个侵
-
NO4我的宝贝7.6 84
我的宝贝 7.6
喜剧
卡尔·达内,乔治·K-阿瑟,夏洛特·格林伍德,Louise Lorraine
-
NO5继续跳舞7.6 85
继续跳舞 7.6
喜剧
繆騫人,林建明,黄霑,周文健,孟海
资深电视人甘国亮和《跳灰》新浪潮电影人梁普智联合导演,1988年喜剧《继续跳舞》由缪骞人、新马师曾、曾志伟、吴耀汉、黄沾
-
NO6战国FAN7.6 86
战国FAN 7.6
喜剧,动画
图特哈蒙,藤新,瞳音,叮当,宝木中阳,阎么么,兰陵,皇贞季,邢子皓,郝祥海,尘萧,明月
突如其来的科技文明,让战争迷雾笼罩着九州大陆全境,魔法与科技的奇妙组合成为君王心中统御天下的王道。然而,从太古时期便销声
-
NO7桃花依旧笑春风7.6 87
桃花依旧笑春风 7.6
喜剧,爱情
陈娟娟,白云,王斑,华梦,文燕,姚萍,陈焕文,杨念椿,吴家骧,魏鹏飞,邵迦,王辛,蒋锐,姜南,郭媚媚,张海漱,邓芬,冯应湘
杜莎菲是千金小姐,有不少富家子弟追求,但她独爱勤奋上进的张平.张平是某公司的小职员,为取悦莎菲,甘愿冒充为公司经理,幸好
-
NO8十二生肖7.6 88
十二生肖 7.6
喜剧,动作,冒险
成龙,权相佑,廖凡,姚星彤,张蓝心,白露娜,刘承俊,吴彦祖,舒淇,李宗盛,陈柏霖,卢惠光,耿长军,白冰,林鹏
当年英法联军火烧圆明园,致使大批珍贵文物流落海外,其中四尊十二生肖兽首最引人关注,不仅惹出国内外的广泛争论,更有收藏家开
-
NO9大叔,我爱你7.6 89
大叔,我爱你 7.6
喜剧,爱情
张智霖,付梦妮,翁虹,野营,郭美孜,董文军,孙斌,张咏荷,董琪,朱莉叶
十八岁的“红星社二代”乐队主唱沈绮(付梦妮 饰),在一起事故中,与刚从香港归来的风度翩翩中年男子方家成(张智霖 饰)一眼
-
NO10喜剧之王7.6 810
喜剧之王 7.6
剧情,喜剧,爱情
周星驰,张柏芝,莫文蔚,吴孟达,林子善,田启文,李兆基,成龙,李思捷,郑文辉
尹天仇(周星驰 饰)一直醉心戏剧,想成为一名演员,平时除了做跑龙套以外,还会在街坊福利会里开设演员训练班。此时舞小姐柳飘飘在妈妈桑的带领下来